createdAt,value
2023-04-07T00:00:01.105Z,98028.75
2023-04-07T00:03:53.269Z,98033.52
2023-04-07T00:08:01.652Z,98034.27
2023-04-07T00:12:02.743Z,98034.26
2023-04-07T00:16:03.823Z,98032.40
2023-04-07T00:19:56.400Z,98032.79
2023-04-07T00:24:04.655Z,98031.21
2023-04-07T00:28:12.752Z,98031.23
2023-04-07T00:32:06.259Z,98031.67
2023-04-07T00:36:04.162Z,98032.37
2023-04-07T00:40:12.312Z,98036.88
2023-04-07T00:44:20.404Z,98038.65
2023-04-07T00:48:28.563Z,98033.16
2023-04-07T00:52:28.709Z,98032.22
2023-04-07T00:56:36.881Z,98033.41
2023-04-07T01:00:45.042Z,98040.63
2023-04-07T01:04:59.671Z,98040.71
2023-04-07T01:09:06.669Z,98038.79
2023-04-07T01:13:30.201Z,98037.08
2023-04-07T01:17:41.058Z,98033.74
2023-04-07T01:21:50.272Z,98043.26
2023-04-07T01:26:06.563Z,98046.23
2023-04-07T01:30:16.513Z,98048.40
2023-04-07T01:34:24.622Z,98043.83
2023-04-07T01:38:32.853Z,98044.67
2023-04-07T01:42:33.608Z,98054.55
2023-04-07T01:46:42.757Z,98056.77
2023-04-07T01:50:51.416Z,98054.20
2023-04-07T01:54:49.768Z,98060.25
2023-04-07T01:58:58.078Z,98058.59
2023-04-07T02:03:06.309Z,98055.13
2023-04-07T02:07:14.416Z,98047.39
2023-04-07T02:11:06.364Z,98046.50
2023-04-07T02:14:57.303Z,98045.73
2023-04-07T02:19:05.486Z,98044.17
2023-04-07T02:23:13.607Z,98045.79
2023-04-07T02:27:25.468Z,98049.05
2023-04-07T02:31:13.082Z,98050.70
2023-04-07T02:35:21.897Z,98050.65
2023-04-07T02:39:23.409Z,98050.66
2023-04-07T02:43:24.446Z,98055.35
2023-04-07T02:47:32.531Z,98049.88
2023-04-07T02:51:41.632Z,98058.55
2023-04-07T02:55:39.825Z,98059.27
2023-04-07T02:59:47.954Z,98060.39
2023-04-07T03:03:38.858Z,98066.02
2023-04-07T03:07:37.082Z,98071.03
2023-04-07T03:11:45.170Z,98069.73
2023-04-07T03:15:46.824Z,98072.73
2023-04-07T03:19:54.987Z,98075.17
2023-04-07T03:23:43.397Z,98079.23
2023-04-07T03:27:51.599Z,98088.68
2023-04-07T03:31:40.055Z,98087.27
2023-04-07T03:34:36.806Z,98083.57
2023-04-07T03:38:28.361Z,98086.09
2023-04-07T03:42:36.577Z,98091.15
2023-04-07T03:45:47.597Z,98093.86
2023-04-07T03:49:55.766Z,98096.27
2023-04-07T03:53:06.645Z,98105.48
2023-04-07T03:57:03.349Z,98103.27
2023-04-07T04:00:08.491Z,98106.89
2023-04-07T04:03:45.199Z,98107.08
2023-04-07T04:07:36.282Z,98112.27
2023-04-07T04:11:44.493Z,98122.10
2023-04-07T04:15:37.211Z,98123.95
2023-04-07T04:18:45.434Z,98124.10
2023-04-07T04:22:43.400Z,98130.30
2023-04-07T04:26:31.282Z,98135.63
2023-04-07T04:30:21.532Z,98135.65
2023-04-07T04:34:22.329Z,98149.40
2023-04-07T04:38:31.536Z,98152.33
2023-04-07T04:42:09.500Z,98153.38
2023-04-07T04:45:54.160Z,98156.95
2023-04-07T04:49:36.328Z,98163.48
2023-04-07T04:52:30.133Z,98168.10
2023-04-07T04:55:52.304Z,98172.05
2023-04-07T04:59:00.977Z,98172.92
2023-04-07T05:02:16.622Z,98173.59
2023-04-07T05:05:19.549Z,98174.19
2023-04-07T05:07:52.147Z,98176.59
2023-04-07T05:10:41.473Z,98181.45
2023-04-07T05:13:40.201Z,98183.82
2023-04-07T05:16:27.971Z,98185.69
2023-04-07T05:19:41.787Z,98193.69
2023-04-07T05:22:37.660Z,98193.73
2023-04-07T05:25:15.359Z,98192.40
2023-04-07T05:27:46.723Z,98196.33
2023-04-07T05:30:31.584Z,98195.38
2023-04-07T05:33:07.890Z,98204.41
2023-04-07T05:35:56.900Z,98205.08
2023-04-07T05:38:39.676Z,98207.08
2023-04-07T05:42:08.178Z,98206.79
2023-04-07T05:44:48.217Z,98214.39
2023-04-07T05:47:20.835Z,98217.65
2023-04-07T05:50:33.534Z,98221.66
2023-04-07T05:53:32.895Z,98228.29
2023-04-07T05:56:10.317Z,98230.94
2023-04-07T05:59:16.815Z,98229.74
2023-04-07T06:01:48.935Z,98230.61
2023-04-07T06:04:21.342Z,98233.55
2023-04-07T06:07:07.196Z,98239.63
2023-04-07T06:09:37.323Z,98245.45
2023-04-07T06:12:24.882Z,98241.25
2023-04-07T06:15:00.399Z,98241.99
2023-04-07T06:17:31.326Z,98243.48
2023-04-07T06:20:04.745Z,98243.59
2023-04-07T06:23:01.833Z,98253.02
2023-04-07T06:25:29.302Z,98255.95
2023-04-07T06:27:56.625Z,98263.52
2023-04-07T06:30:37.560Z,98263.91
2023-04-07T06:33:28.939Z,98262.25
2023-04-07T06:36:20.434Z,98263.27
2023-04-07T06:39:07.730Z,98271.16
2023-04-07T06:42:22.802Z,98273.75
2023-04-07T06:45:00.582Z,98276.45
2023-04-07T06:47:56.752Z,98279.55
2023-04-07T06:50:42.774Z,98283.52
2023-04-07T06:53:30.313Z,98287.44
2023-04-07T06:56:07.929Z,98289.28
2023-04-07T06:58:39.289Z,98296.92
2023-04-07T07:01:19.222Z,98298.81
2023-04-07T07:03:47.627Z,98302.77
2023-04-07T07:06:26.215Z,98305.39
2023-04-07T07:08:53.897Z,98306.27
2023-04-07T07:11:25.871Z,98311.66
2023-04-07T07:13:56.095Z,98309.42
2023-04-07T07:16:28.962Z,98315.16
2023-04-07T07:19:08.395Z,98314.84
2023-04-07T07:21:51.256Z,98318.67
2023-04-07T07:24:34.111Z,98322.08
2023-04-07T07:27:06.829Z,98323.90
2023-04-07T07:29:36.952Z,98319.49
2023-04-07T07:32:04.712Z,98318.83
2023-04-07T07:34:48.548Z,98322.52
2023-04-07T07:37:28.256Z,98331.63
2023-04-07T07:40:05.756Z,98332.05
2023-04-07T07:42:36.587Z,98335.29
2023-04-07T07:45:07.280Z,98337.08
2023-04-07T07:47:43.815Z,98345.66
2023-04-07T07:50:11.291Z,98349.68
2023-04-07T07:52:38.533Z,98351.06
2023-04-07T07:55:09.253Z,98348.96
2023-04-07T07:57:36.861Z,98351.02
2023-04-07T08:00:15.729Z,98355.11
2023-04-07T08:03:02.481Z,98357.02
2023-04-07T08:05:30.616Z,98364.02
2023-04-07T08:07:58.149Z,98363.83
2023-04-07T08:10:41.914Z,98364.94
2023-04-07T08:13:17.605Z,98366.33
2023-04-07T08:15:49.462Z,98367.86
2023-04-07T08:18:19.721Z,98371.08
2023-04-07T08:20:54.833Z,98377.15
2023-04-07T08:23:36.577Z,98378.89
2023-04-07T08:26:46.168Z,98380.77
2023-04-07T08:29:22.619Z,98381.38
2023-04-07T08:32:03.424Z,98384.13
2023-04-07T08:34:30.661Z,98387.98
2023-04-07T08:37:18.263Z,98392.46
2023-04-07T08:39:54.325Z,98399.70
2023-04-07T08:42:50.702Z,98403.04
2023-04-07T08:45:19.091Z,98406.27
2023-04-07T08:47:47.771Z,98410.30
2023-04-07T08:50:17.000Z,98410.48
2023-04-07T08:52:54.921Z,98408.83
2023-04-07T08:55:26.471Z,98410.55
2023-04-07T08:58:14.554Z,98416.01
2023-04-07T09:01:06.035Z,98413.72
2023-04-07T09:04:16.882Z,98415.00
2023-04-07T09:06:56.364Z,98414.21
2023-04-07T09:09:48.024Z,98415.89
2023-04-07T09:12:18.550Z,98423.02
2023-04-07T09:14:49.363Z,98422.45
2023-04-07T09:17:56.024Z,98424.63
2023-04-07T09:20:23.597Z,98423.98
2023-04-07T09:23:03.867Z,98429.20
2023-04-07T09:26:05.847Z,98429.33
2023-04-07T09:28:45.725Z,98434.10
2023-04-07T09:31:55.398Z,98441.45
2023-04-07T09:34:55.015Z,98449.40
2023-04-07T09:37:31.158Z,98455.25
2023-04-07T09:40:26.088Z,98459.60
2023-04-07T09:42:53.492Z,98461.70
2023-04-07T09:45:35.228Z,98464.73
2023-04-07T09:48:34.992Z,98470.21
2023-04-07T09:51:23.694Z,98469.65
2023-04-07T09:53:51.626Z,98473.77
2023-04-07T09:56:39.153Z,98477.25
2023-04-07T09:59:22.983Z,98474.52
2023-04-07T10:02:12.782Z,98479.58
2023-04-07T10:04:43.874Z,98485.97
2023-04-07T10:07:11.180Z,98490.59
2023-04-07T10:09:38.333Z,98494.73
2023-04-07T10:12:13.959Z,98498.70
2023-04-07T10:14:47.098Z,98498.27
2023-04-07T10:17:19.426Z,98498.17
2023-04-07T10:20:07.430Z,98498.56
2023-04-07T10:22:38.142Z,98499.26
2023-04-07T10:25:25.828Z,98501.30
2023-04-07T10:27:59.187Z,98501.73
2023-04-07T10:30:31.613Z,98507.23
2023-04-07T10:33:54.175Z,98509.75
2023-04-07T10:36:24.216Z,98512.61
2023-04-07T10:39:09.555Z,98510.66
2023-04-07T10:42:00.010Z,98516.60
2023-04-07T10:44:39.825Z,98526.31
2023-04-07T10:47:07.485Z,98522.44
2023-04-07T10:50:12.320Z,98529.41
2023-04-07T10:52:46.248Z,98529.63
2023-04-07T10:55:42.052Z,98528.63
2023-04-07T10:58:35.046Z,98530.00
2023-04-07T11:01:12.021Z,98529.17
2023-04-07T11:03:42.831Z,98531.58
2023-04-07T11:06:13.684Z,98532.44
2023-04-07T11:08:47.412Z,98534.66
2023-04-07T11:11:35.661Z,98534.75
2023-04-07T11:14:05.109Z,98542.95
2023-04-07T11:16:49.321Z,98545.90
2023-04-07T11:19:16.561Z,98543.62
2023-04-07T11:21:44.630Z,98547.75
2023-04-07T11:24:32.404Z,98555.41
2023-04-07T11:27:06.583Z,98555.86
2023-04-07T11:30:13.519Z,98561.05
2023-04-07T11:32:41.068Z,98560.26
2023-04-07T11:35:18.445Z,98566.21
2023-04-07T11:37:49.554Z,98567.89
2023-04-07T11:40:34.382Z,98571.28
2023-04-07T11:43:25.101Z,98575.15
2023-04-07T11:46:24.349Z,98576.79
2023-04-07T11:49:02.194Z,98580.43
2023-04-07T11:51:40.969Z,98582.65
2023-04-07T11:54:16.496Z,98583.98
2023-04-07T11:56:51.628Z,98586.38
2023-04-07T11:59:23.272Z,98585.67
2023-04-07T12:01:51.765Z,98588.14
2023-04-07T12:04:19.777Z,98588.11
2023-04-07T12:06:49.004Z,98590.76
2023-04-07T12:09:35.903Z,98589.98
2023-04-07T12:12:05.872Z,98596.44
2023-04-07T12:15:36.284Z,98594.66
2023-04-07T12:18:12.169Z,98597.52
2023-04-07T12:20:47.445Z,98598.64
2023-04-07T12:23:44.782Z,98598.45
2023-04-07T12:26:12.341Z,98599.33
2023-04-07T12:28:44.207Z,98602.96
2023-04-07T12:31:36.978Z,98606.58
2023-04-07T12:34:59.481Z,98607.60
2023-04-07T12:37:27.518Z,98613.00
2023-04-07T12:40:02.112Z,98619.02
2023-04-07T12:42:29.952Z,98618.45
2023-04-07T12:45:08.373Z,98614.77
2023-04-07T12:48:03.455Z,98611.91
2023-04-07T12:51:01.442Z,98612.31
2023-04-07T12:53:44.865Z,98614.67
2023-04-07T12:56:43.960Z,98611.98
2023-04-07T12:59:28.424Z,98615.33
2023-04-07T13:01:55.913Z,98616.20
2023-04-07T13:04:37.057Z,98619.34
2023-04-07T13:07:04.317Z,98617.40
2023-04-07T13:09:31.715Z,98620.99
2023-04-07T13:11:59.193Z,98621.59
2023-04-07T13:14:29.685Z,98616.11
2023-04-07T13:17:25.003Z,98619.02
2023-04-07T13:19:52.658Z,98618.11
2023-04-07T13:22:24.503Z,98617.45
2023-04-07T13:24:52.129Z,98627.54
2023-04-07T13:27:30.687Z,98631.27
2023-04-07T13:30:30.607Z,98632.18
2023-04-07T13:33:37.776Z,98634.08
2023-04-07T13:36:17.874Z,98638.78
2023-04-07T13:38:50.241Z,98635.33
2023-04-07T13:41:27.646Z,98641.92
2023-04-07T13:44:21.267Z,98641.51
2023-04-07T13:46:58.180Z,98640.61
2023-04-07T13:49:34.387Z,98642.41
2023-04-07T13:52:11.977Z,98644.64
2023-04-07T13:55:10.695Z,98646.58
2023-04-07T13:57:38.202Z,98649.94
2023-04-07T14:00:10.017Z,98651.40
2023-04-07T14:02:38.740Z,98648.92
2023-04-07T14:05:38.436Z,98647.24
2023-04-07T14:08:11.448Z,98651.34
2023-04-07T14:10:45.535Z,98653.65
2023-04-07T14:13:17.732Z,98656.91
2023-04-07T14:16:28.635Z,98663.10
2023-04-07T14:19:24.138Z,98666.13
2023-04-07T14:21:51.466Z,98669.11
2023-04-07T14:24:40.032Z,98669.92
2023-04-07T14:27:21.078Z,98669.18
2023-04-07T14:29:59.579Z,98671.52
2023-04-07T14:32:30.049Z,98674.02
2023-04-07T14:34:59.816Z,98672.47
2023-04-07T14:38:01.106Z,98671.86
2023-04-07T14:40:28.457Z,98674.77
2023-04-07T14:43:20.812Z,98681.32
2023-04-07T14:46:12.449Z,98681.48
2023-04-07T14:48:54.494Z,98689.07
2023-04-07T14:51:56.571Z,98692.45
2023-04-07T14:54:33.327Z,98693.48
2023-04-07T14:57:22.454Z,98690.21
2023-04-07T15:00:10.692Z,98693.83
2023-04-07T15:02:45.666Z,98693.31
2023-04-07T15:05:16.377Z,98694.55
2023-04-07T15:08:21.835Z,98691.10
2023-04-07T15:11:04.319Z,98693.23
2023-04-07T15:13:34.902Z,98693.62
2023-04-07T15:16:47.275Z,98696.46
2023-04-07T15:19:17.256Z,98694.87
2023-04-07T15:21:48.389Z,98694.23
2023-04-07T15:26:44.454Z,98702.91
2023-04-07T15:29:34.079Z,98704.63
2023-04-07T15:32:21.516Z,98705.25
2023-04-07T15:34:51.989Z,98706.40
2023-04-07T15:38:01.872Z,98705.12
2023-04-07T15:40:29.380Z,98710.25
2023-04-07T15:43:12.327Z,98711.37
2023-04-07T15:45:43.569Z,98711.75
2023-04-07T15:48:13.725Z,98708.86
2023-04-07T15:50:41.154Z,98711.97
2023-04-07T15:53:08.405Z,98710.89
2023-04-07T15:55:57.019Z,98712.48
2023-04-07T15:58:53.326Z,98710.23
2023-04-07T16:01:20.494Z,98714.43
2023-04-07T16:03:48.785Z,98715.83
2023-04-07T16:06:39.807Z,98720.11
2023-04-07T16:09:37.279Z,98716.76
2023-04-07T16:12:09.451Z,98720.60
2023-04-07T16:14:36.576Z,98726.57
2023-04-07T16:17:17.251Z,98726.66
2023-04-07T16:19:53.328Z,98731.38
2023-04-07T16:22:54.812Z,98731.13
2023-04-07T16:25:55.529Z,98737.67
2023-04-07T16:28:42.028Z,98741.36
2023-04-07T16:31:12.390Z,98744.31
2023-04-07T16:33:45.694Z,98745.39
2023-04-07T16:37:05.325Z,98745.01
2023-04-07T16:39:32.954Z,98746.75
2023-04-07T16:42:12.177Z,98753.05
2023-04-07T16:44:40.110Z,98753.86
2023-04-07T16:47:11.191Z,98756.92
2023-04-07T16:49:41.078Z,98755.05
2023-04-07T16:52:10.136Z,98757.25
2023-04-07T16:54:47.732Z,98757.97
2023-04-07T16:57:15.033Z,98762.52
2023-04-07T16:59:44.136Z,98767.18
2023-04-07T17:02:13.235Z,98768.67
2023-04-07T17:04:42.636Z,98771.63
2023-04-07T17:07:12.826Z,98776.94
2023-04-07T17:10:05.083Z,98781.42
2023-04-07T17:12:35.808Z,98790.63
2023-04-07T17:15:21.615Z,98791.33
2023-04-07T17:17:59.799Z,98796.77
2023-04-07T17:20:32.328Z,98800.56
2023-04-07T17:23:20.480Z,98801.38
2023-04-07T17:26:24.922Z,98805.55
2023-04-07T17:29:48.996Z,98812.70
2023-04-07T17:32:20.926Z,98814.30
2023-04-07T17:34:57.632Z,98820.11
2023-04-07T17:37:26.504Z,98819.21
2023-04-07T17:39:54.223Z,98827.27
2023-04-07T17:42:42.962Z,98825.23
2023-04-07T17:45:10.886Z,98830.72
2023-04-07T17:47:41.350Z,98837.21
2023-04-07T17:50:13.305Z,98835.98
2023-04-07T17:52:50.165Z,98837.89
2023-04-07T17:56:00.701Z,98839.95
2023-04-07T17:58:46.624Z,98841.86
2023-04-07T18:01:18.850Z,98844.16
2023-04-07T18:04:13.211Z,98845.62
2023-04-07T18:06:42.935Z,98852.27
2023-04-07T18:09:18.303Z,98861.68
2023-04-07T18:11:56.629Z,98859.36
2023-04-07T18:14:23.751Z,98861.11
2023-04-07T18:17:11.430Z,98862.48
2023-04-07T18:19:42.394Z,98865.81
2023-04-07T18:22:26.858Z,98866.78
2023-04-07T18:25:10.662Z,98868.36
2023-04-07T18:28:10.320Z,98874.35
2023-04-07T18:30:37.565Z,98873.83
2023-04-07T18:33:08.098Z,98872.71
2023-04-07T18:35:35.308Z,98873.92
2023-04-07T18:38:22.406Z,98875.02
2023-04-07T18:40:52.141Z,98877.00
2023-04-07T18:43:26.851Z,98878.53
2023-04-07T18:46:14.219Z,98872.68
2023-04-07T18:49:10.783Z,98870.42
2023-04-07T18:51:38.225Z,98874.61
2023-04-07T18:54:24.306Z,98875.05
2023-04-07T18:56:51.735Z,98877.20
2023-04-07T18:59:27.631Z,98881.17
2023-04-07T19:02:55.588Z,98880.45
2023-04-07T19:05:25.595Z,98880.33
2023-04-07T19:08:21.956Z,98879.48
2023-04-07T19:11:04.391Z,98881.63
2023-04-07T19:13:35.292Z,98878.86
2023-04-07T19:16:08.017Z,98883.35
2023-04-07T19:18:38.479Z,98886.09
2023-04-07T19:21:08.694Z,98885.75
2023-04-07T19:23:37.612Z,98889.73
2023-04-07T19:26:14.949Z,98893.46
2023-04-07T19:28:49.214Z,98894.31
2023-04-07T19:31:24.128Z,98895.20
2023-04-07T19:34:23.376Z,98891.54
2023-04-07T19:36:53.442Z,98892.80
2023-04-07T19:39:33.026Z,98895.60
2023-04-07T19:42:12.782Z,98894.00
2023-04-07T19:45:10.509Z,98894.97
2023-04-07T19:48:42.590Z,98894.23
2023-04-07T19:51:30.658Z,98894.58
2023-04-07T19:54:27.637Z,98902.02
2023-04-07T19:57:05.220Z,98895.55
2023-04-07T20:00:23.242Z,98896.62
2023-04-07T20:03:10.225Z,98905.47
2023-04-07T20:06:31.927Z,98909.79
2023-04-07T20:10:42.150Z,98914.48
2023-04-07T20:14:13.288Z,98917.85
2023-04-07T20:17:20.055Z,98919.51
2023-04-07T20:20:15.676Z,98920.95
2023-04-07T20:22:52.259Z,98916.69
2023-04-07T20:25:19.841Z,98916.84
2023-04-07T20:28:09.807Z,98919.33
2023-04-07T20:31:08.415Z,98918.55
2023-04-07T20:34:16.352Z,98918.33
2023-04-07T20:37:12.485Z,98918.23
2023-04-07T20:40:40.285Z,98922.23
2023-04-07T20:44:33.472Z,98922.16
2023-04-07T20:47:23.759Z,98921.98
2023-04-07T20:50:19.393Z,98921.52
2023-04-07T20:53:00.437Z,98917.01
2023-04-07T20:56:17.133Z,98919.36
2023-04-07T20:59:41.816Z,98926.14
2023-04-07T21:03:42.324Z,98921.38
2023-04-07T21:06:45.882Z,98920.02
2023-04-07T21:10:46.734Z,98920.51
2023-04-07T21:13:48.016Z,98918.68
2023-04-07T21:16:48.394Z,98921.13
2023-04-07T21:20:56.556Z,98930.23
2023-04-07T21:24:04.466Z,98930.52
2023-04-07T21:27:34.782Z,98932.08
2023-04-07T21:31:21.031Z,98933.10
2023-04-07T21:35:18.135Z,98928.58
2023-04-07T21:38:39.911Z,98927.73
2023-04-07T21:41:57.612Z,98930.16
2023-04-07T21:45:45.722Z,98930.78
2023-04-07T21:49:26.409Z,98926.25
2023-04-07T21:52:29.301Z,98925.38
2023-04-07T21:55:39.939Z,98927.12
2023-04-07T21:59:10.646Z,98926.40
2023-04-07T22:02:51.621Z,98921.84
2023-04-07T22:06:59.899Z,98917.58
2023-04-07T22:11:12.038Z,98919.33
2023-04-07T22:15:12.889Z,98913.55
2023-04-07T22:19:03.955Z,98909.29
2023-04-07T22:23:15.305Z,98914.53
2023-04-07T22:26:59.448Z,98915.80
2023-04-07T22:31:02.405Z,98909.89
2023-04-07T22:35:10.498Z,98912.63
2023-04-07T22:39:09.661Z,98918.35
2023-04-07T22:43:19.845Z,98924.94
2023-04-07T22:47:27.918Z,98920.33
2023-04-07T22:51:35.596Z,98908.41
2023-04-07T22:54:57.814Z,98908.92
2023-04-07T22:59:06.141Z,98907.11
2023-04-07T23:02:54.191Z,98906.13
2023-04-07T23:07:02.447Z,98907.26
2023-04-07T23:11:10.519Z,98908.27
2023-04-07T23:15:18.728Z,98907.70
2023-04-07T23:19:17.295Z,98908.02
2023-04-07T23:23:25.437Z,98909.87
2023-04-07T23:27:10.693Z,98903.94
2023-04-07T23:30:37.512Z,98908.16
2023-04-07T23:34:34.564Z,98910.36
2023-04-07T23:38:33.692Z,98906.84
2023-04-07T23:42:41.783Z,98902.40
2023-04-07T23:46:39.627Z,98903.83
2023-04-07T23:50:48.794Z,98899.55
2023-04-07T23:54:56.948Z,98899.52
2023-04-07T23:58:52.282Z,98891.59
